Tyldesley, United Kingdom
Current Conditions -  °F | °C
As of 12:20 AM on Saturday 22 Nov 2014 (Local Time) from EGCC Reporting Station
Light Rain Light Rain  
Wind Chill:   Ceiling: 1500
Heat Index:   Visibility: 4mi
Dew Point:   Wind: 14mph
Humidity: 93%   Direction: 150°SSE
Pressure: 29.83"   Gusts: NA
Location:  53.51°N, 2.47°W
Report Text: EGCC 220020Z 15012KT 7000 -RA FEW011 BKN015 09/08 Q1010 RERA
Loading
Personal Weather Stations






























Interactive Weather Map New forecast layout! Learn more

10-Day Weather Forecast

Advertisements
Track Severe Weather on mobile